Time;durP1;ratioP1;P1;durP2;ratioP2;P2;SDS_P1;SDS_P2;PMS_P1;PMS_P2;Temp;Humidity;BMP_temperature;BMP_pressure;BME280_temperature;BME280_humidity;BME280_pressure;Samples;Min_cycle;Max_cycle;Signal;HPM_P1;HPM_P2
2020/12/25 00:01:26;;;;;;;7.60;2.53;;;2.90;99.90;;;;;;5053863;28;20930;-79
2020/12/25 00:03:57;;;;;;;2.27;2.17;;;2.90;99.90;;;;;;5068779;28;20431;-79
2020/12/25 00:06:23;;;;;;;3.97;2.60;;;2.90;99.90;;;;;;5070988;28;20454;-80
2020/12/25 00:08:49;;;;;;;2.57;2.33;;;2.90;99.90;;;;;;5071536;28;20524;-79
2020/12/25 00:11:15;;;;;;;3.50;2.27;;;2.90;99.90;;;;;;5069187;28;20488;-79
2020/12/25 00:13:44;;;;;;;5.10;2.23;;;2.90;99.90;;;;;;5054352;28;20213;-79
2020/12/25 00:16:10;;;;;;;4.17;3.70;;;2.90;99.90;;;;;;5069672;28;20194;-79
2020/12/25 00:18:35;;;;;;;2.70;2.47;;;2.90;99.90;;;;;;5048017;28;20506;-79
2020/12/25 00:21:01;;;;;;;2.77;2.40;;;3.00;99.90;;;;;;5070814;28;20213;-79
2020/12/25 00:23:27;;;;;;;2.20;2.10;;;3.00;99.90;;;;;;5067037;28;20263;-79
2020/12/25 00:25:53;;;;;;;12.43;3.80;;;3.00;99.90;;;;;;5050838;28;20183;-79
2020/12/25 00:28:19;;;;;;;2.77;2.57;;;2.90;99.90;;;;;;5052764;28;20928;-79
2020/12/25 00:30:45;;;;;;;3.33;2.57;;;3.00;99.90;;;;;;5043760;28;20178;-79
2020/12/25 00:33:11;;;;;;;4.57;2.90;;;3.00;99.90;;;;;;5068191;28;20211;-79
2020/12/25 00:35:37;;;;;;;2.97;2.53;;;2.90;99.90;;;;;;5070253;28;20181;-79
2020/12/25 00:38:03;;;;;;;2.80;2.50;;;2.90;99.90;;;;;;5070061;28;20516;-79
2020/12/25 00:40:29;;;;;;;3.67;3.33;;;2.80;99.90;;;;;;5054919;28;20572;-79
2020/12/25 00:42:54;;;;;;;2.87;2.57;;;2.80;99.90;;;;;;5052463;28;20564;-79
2020/12/25 00:45:20;;;;;;;3.90;3.27;;;2.80;99.90;;;;;;5072089;28;20182;-79
2020/12/25 00:47:46;;;;;;;2.60;2.40;;;2.80;99.90;;;;;;5053134;28;20260;-79
2020/12/25 00:50:12;;;;;;;4.07;3.20;;;2.90;99.90;;;;;;5053866;28;20177;-79
2020/12/25 00:52:38;;;;;;;4.03;2.47;;;2.80;99.90;;;;;;5069670;28;20250;-79
2020/12/25 00:55:04;;;;;;;4.07;2.73;;;2.90;99.90;;;;;;5052112;28;20182;-79
2020/12/25 00:57:29;;;;;;;3.23;2.93;;;2.90;99.90;;;;;;5047048;28;20184;-79
2020/12/25 00:59:55;;;;;;;3.73;2.50;;;2.90;99.90;;;;;;5059128;28;20427;-79
2020/12/25 01:02:23;;;;;;;5.73;2.90;;;2.80;99.90;;;;;;5060842;28;20953;-79
2020/12/25 01:04:49;;;;;;;3.17;2.97;;;2.80;99.90;;;;;;5062057;28;20176;-79
2020/12/25 01:07:15;;;;;;;3.47;2.00;;;2.80;99.90;;;;;;5068427;28;20913;-79
2020/12/25 01:09:40;;;;;;;5.43;2.50;;;2.80;99.90;;;;;;5046878;28;20468;-79
2020/12/25 01:12:06;;;;;;;7.10;2.80;;;2.90;99.90;;;;;;5071078;28;20177;-79
2020/12/25 01:14:32;;;;;;;6.70;3.10;;;2.80;99.90;;;;;;5054787;28;20658;-79
2020/12/25 01:16:58;;;;;;;4.00;2.50;;;2.80;99.90;;;;;;5065680;28;20203;-79
2020/12/25 01:19:25;;;;;;;2.73;2.53;;;2.80;99.90;;;;;;5059928;28;20437;-79
2020/12/25 01:21:51;;;;;;;6.43;1.90;;;2.80;99.90;;;;;;5050153;28;20432;-79
2020/12/25 01:24:18;;;;;;;3.30;2.27;;;2.80;99.90;;;;;;5067567;28;20516;-79
2020/12/25 01:26:44;;;;;;;3.77;2.13;;;2.80;99.90;;;;;;5051072;28;20436;-79
2020/12/25 01:29:09;;;;;;;7.73;3.50;;;2.90;99.90;;;;;;5067579;28;20938;-79
2020/12/25 01:31:35;;;;;;;2.50;2.30;;;2.90;99.90;;;;;;5053020;28;20430;-79
2020/12/25 01:34:01;;;;;;;2.57;2.37;;;2.80;99.90;;;;;;5065888;28;20208;-79
2020/12/25 01:36:27;;;;;;;4.53;3.70;;;2.90;99.90;;;;;;5067318;28;20172;-79
2020/12/25 01:38:53;;;;;;;7.13;2.80;;;2.80;99.90;;;;;;5065938;28;20434;-79
2020/12/25 01:41:19;;;;;;;3.37;2.50;;;2.80;99.90;;;;;;5050685;28;20479;-79
2020/12/25 01:43:45;;;;;;;2.90;2.70;;;2.80;99.90;;;;;;5068800;28;20269;-79
2020/12/25 01:46:12;;;;;;;6.37;2.90;;;2.80;99.90;;;;;;5063303;28;20434;-79
2020/12/25 01:48:38;;;;;;;5.57;3.50;;;2.80;99.90;;;;;;5047612;28;20184;-79
2020/12/25 01:51:06;;;;;;;6.80;3.10;;;2.80;99.90;;;;;;5065776;28;20435;-79
2020/12/25 01:53:33;;;;;;;5.63;2.83;;;2.80;99.90;;;;;;5049647;28;20461;-79
2020/12/25 01:56:00;;;;;;;3.23;2.83;;;2.70;99.90;;;;;;5051288;28;20422;-79
2020/12/25 01:58:28;;;;;;;5.73;3.37;;;2.70;99.90;;;;;;5062461;28;20889;-79
2020/12/25 02:00:54;;;;;;;3.90;3.00;;;2.70;99.90;;;;;;5066534;28;20437;-78
2020/12/25 02:03:20;;;;;;;3.80;3.50;;;2.70;99.90;;;;;;5068721;28;20632;-79
2020/12/25 02:05:46;;;;;;;3.53;2.60;;;2.70;99.90;;;;;;5068795;28;20211;-79
2020/12/25 02:08:13;;;;;;;2.80;2.57;;;2.70;99.90;;;;;;5045655;28;20180;-79
2020/12/25 02:10:40;;;;;;;2.77;2.57;;;2.70;99.90;;;;;;5068030;28;20442;-79
2020/12/25 02:13:06;;;;;;;4.93;3.47;;;2.60;99.90;;;;;;5046015;28;20486;-79
2020/12/25 02:15:33;;;;;;;2.10;2.00;;;2.70;99.90;;;;;;5064468;28;20440;-79
2020/12/25 02:17:58;;;;;;;3.43;3.10;;;2.70;99.90;;;;;;5064051;28;20428;-79
2020/12/25 02:20:24;;;;;;;5.73;2.80;;;2.60;99.90;;;;;;5067042;28;20559;-79
2020/12/25 02:22:50;;;;;;;5.73;2.50;;;2.60;99.90;;;;;;5066310;28;20515;-79
2020/12/25 02:25:16;;;;;;;3.20;2.60;;;2.60;99.90;;;;;;5067728;28;20272;-79
2020/12/25 02:27:42;;;;;;;3.00;2.77;;;2.50;99.90;;;;;;5069589;28;20189;-79
2020/12/25 02:30:08;;;;;;;4.53;2.70;;;2.50;99.90;;;;;;5067276;28;20425;-79
2020/12/25 02:32:35;;;;;;;3.07;2.80;;;2.40;99.90;;;;;;5066841;28;20181;-79
2020/12/25 02:35:00;;;;;;;3.33;2.90;;;2.30;99.90;;;;;;5049622;28;20914;-79
2020/12/25 02:37:26;;;;;;;2.93;2.53;;;2.30;99.90;;;;;;5068708;28;20435;-79
2020/12/25 02:39:53;;;;;;;3.03;2.83;;;2.20;99.90;;;;;;5067969;28;20434;-79
2020/12/25 02:42:19;;;;;;;3.90;2.70;;;2.30;99.90;;;;;;5066290;28;20667;-79
2020/12/25 02:44:44;;;;;;;2.30;2.17;;;2.20;99.90;;;;;;5068657;28;20457;-79
2020/12/25 02:47:10;;;;;;;4.40;2.23;;;2.20;99.90;;;;;;5065998;28;20188;-79
2020/12/25 02:49:37;;;;;;;2.70;1.90;;;2.10;99.90;;;;;;5065454;28;20474;-79
2020/12/25 02:52:03;;;;;;;4.70;2.50;;;2.10;99.90;;;;;;5069542;28;20425;-79
2020/12/25 02:54:29;;;;;;;3.00;2.80;;;2.00;99.90;;;;;;5064236;28;20473;-79
2020/12/25 02:56:54;;;;;;;2.30;1.80;;;2.00;99.90;;;;;;5069442;28;20429;-79
2020/12/25 02:59:20;;;;;;;4.40;2.70;;;1.90;99.90;;;;;;5067855;28;20695;-79
2020/12/25 03:01:52;;;;;;;2.20;2.10;;;1.90;99.90;;;;;;5066530;28;20241;-79
2020/12/25 03:04:19;;;;;;;3.00;2.40;;;1.90;99.90;;;;;;5072962;28;20175;-79
2020/12/25 03:06:45;;;;;;;5.53;2.87;;;1.80;99.90;;;;;;5071739;28;20758;-79
2020/12/25 03:09:12;;;;;;;5.50;3.27;;;1.80;99.90;;;;;;5071284;28;20431;-79
2020/12/25 03:11:38;;;;;;;2.60;2.40;;;1.80;99.90;;;;;;5070821;28;20484;-79
2020/12/25 03:14:04;;;;;;;5.43;2.93;;;1.70;99.90;;;;;;5053065;28;20462;-79
2020/12/25 03:16:30;;;;;;;2.80;2.60;;;1.70;99.90;;;;;;5070433;28;20189;-79
2020/12/25 03:18:55;;;;;;;5.80;2.60;;;1.70;99.90;;;;;;5071812;28;20805;-79
2020/12/25 03:21:22;;;;;;;2.50;2.30;;;1.60;99.90;;;;;;5054845;28;20175;-79
2020/12/25 03:23:47;;;;;;;4.03;2.50;;;1.60;99.90;;;;;;5071358;28;20186;-79
2020/12/25 03:26:15;;;;;;;3.83;2.27;;;1.60;99.90;;;;;;5069726;28;20433;-79
2020/12/25 03:28:41;;;;;;;4.17;2.30;;;1.60;99.90;;;;;;5068946;28;20184;-79
2020/12/25 03:31:07;;;;;;;2.77;2.60;;;1.60;99.90;;;;;;5072569;28;20519;-79
2020/12/25 03:33:32;;;;;;;3.57;2.53;;;1.60;99.90;;;;;;5068107;28;20474;-79
2020/12/25 03:35:58;;;;;;;3.13;2.23;;;1.50;99.90;;;;;;5055548;28;20206;-79
2020/12/25 03:38:24;;;;;;;1.97;1.77;;;1.60;99.90;;;;;;5069992;28;20596;-79
2020/12/25 03:40:50;;;;;;;2.03;1.93;;;1.50;99.90;;;;;;5071618;28;20422;-79
2020/12/25 03:43:16;;;;;;;7.27;2.13;;;1.40;99.90;;;;;;5071386;28;20430;-79
2020/12/25 03:45:41;;;;;;;2.50;2.10;;;1.40;99.90;;;;;;5072271;28;20184;-79
2020/12/25 03:48:07;;;;;;;4.63;2.43;;;1.30;99.90;;;;;;5052424;28;20183;-79
2020/12/25 03:50:33;;;;;;;2.10;1.90;;;1.30;99.90;;;;;;5052100;28;20612;-79
2020/12/25 03:52:59;;;;;;;5.13;2.00;;;1.20;99.90;;;;;;5074403;28;20632;-79
2020/12/25 03:55:24;;;;;;;2.57;2.13;;;1.20;99.90;;;;;;5072426;28;20608;-79
2020/12/25 03:57:50;;;;;;;3.03;2.33;;;1.20;99.90;;;;;;5070542;28;20189;-80
2020/12/25 04:00:17;;;;;;;3.43;1.70;;;1.10;99.90;;;;;;5053616;28;20186;-79
2020/12/25 04:02:43;;;;;;;2.80;1.70;;;1.10;99.90;;;;;;5069064;28;20687;-79
2020/12/25 04:05:09;;;;;;;5.90;2.03;;;1.00;99.90;;;;;;5054683;28;20429;-80
2020/12/25 04:07:34;;;;;;;6.80;2.03;;;1.00;99.90;;;;;;5073673;28;20194;-80
2020/12/25 04:10:00;;;;;;;1.83;1.43;;;1.00;99.90;;;;;;5072855;28;20473;-80
2020/12/25 04:12:26;;;;;;;2.10;2.00;;;0.90;99.90;;;;;;5072596;28;20274;-80
2020/12/25 04:14:52;;;;;;;4.13;2.00;;;0.90;99.90;;;;;;5071701;28;20590;-81
2020/12/25 04:17:18;;;;;;;5.43;2.00;;;0.90;99.90;;;;;;5070451;28;20523;-80
2020/12/25 04:19:43;;;;;;;4.63;1.90;;;0.90;99.90;;;;;;5069986;28;20179;-80
2020/12/25 04:22:09;;;;;;;4.87;1.70;;;0.80;99.90;;;;;;5073183;28;20180;-80
2020/12/25 04:24:35;;;;;;;3.73;1.70;;;0.90;99.90;;;;;;5073213;28;20198;-80
2020/12/25 04:27:01;;;;;;;1.43;1.33;;;0.80;99.90;;;;;;5073032;28;20642;-80
2020/12/25 04:29:26;;;;;;;3.67;1.80;;;0.80;99.90;;;;;;5052716;28;20172;-80
2020/12/25 04:31:52;;;;;;;1.97;1.80;;;0.80;99.90;;;;;;5073358;28;20184;-80
2020/12/25 04:34:18;;;;;;;3.07;1.87;;;0.80;99.90;;;;;;5069260;28;20207;-80
2020/12/25 04:36:44;;;;;;;4.10;1.80;;;0.80;99.90;;;;;;5055319;28;20179;-80
2020/12/25 04:39:10;;;;;;;1.60;1.50;;;0.80;99.90;;;;;;5069177;28;20446;-80
2020/12/25 04:41:35;;;;;;;7.20;1.50;;;0.80;99.90;;;;;;5070866;28;20176;-80
2020/12/25 04:44:03;;;;;;;12.00;2.97;;;0.70;99.90;;;;;;5069632;28;20191;-80
2020/12/25 04:46:29;;;;;;;2.40;1.70;;;0.60;99.90;;;;;;5070913;28;20184;-80
2020/12/25 04:48:55;;;;;;;3.27;2.00;;;0.60;99.90;;;;;;5051585;28;20443;-80
2020/12/25 04:51:21;;;;;;;3.00;1.70;;;0.70;99.90;;;;;;5068453;28;20639;-80
2020/12/25 04:53:51;;;;;;;4.03;1.60;;;0.70;99.90;;;;;;5071658;28;20464;-80
2020/12/25 04:56:19;;;;;;;3.00;2.10;;;0.70;99.90;;;;;;5067406;28;20433;-80
2020/12/25 04:58:46;;;;;;;5.63;2.60;;;0.70;99.90;;;;;;5067897;28;20426;-80
2020/12/25 05:01:12;;;;;;;7.10;2.27;;;0.70;99.90;;;;;;5070865;28;20453;-80
2020/12/25 05:03:43;;;;;;;2.00;1.70;;;0.60;99.90;;;;;;5069900;28;20437;-80
2020/12/25 05:06:18;;;;;;;3.30;1.50;;;0.60;99.90;;;;;;5071373;28;20184;-80
2020/12/25 05:08:47;;;;;;;2.33;2.13;;;0.50;99.90;;;;;;5066988;28;20774;-80
2020/12/25 05:11:18;;;;;;;4.50;2.10;;;0.50;99.90;;;;;;5069205;28;23381;-80
2020/12/25 05:13:52;;;;;;;1.80;1.70;;;0.40;99.90;;;;;;5068162;28;20509;-81
2020/12/25 05:16:20;;;;;;;1.40;1.30;;;0.40;99.90;;;;;;5065522;28;20832;-80
2020/12/25 05:18:48;;;;;;;2.43;1.70;;;0.40;99.90;;;;;;5064837;28;20517;-80
2020/12/25 05:21:19;;;;;;;2.37;1.77;;;0.40;99.90;;;;;;5070884;28;20572;-81
2020/12/25 05:23:47;;;;;;;1.83;1.50;;;0.30;99.90;;;;;;5053410;28;20438;-81
2020/12/25 05:26:15;;;;;;;1.80;1.70;;;0.20;99.90;;;;;;5067423;28;20774;-80
2020/12/25 05:28:42;;;;;;;4.10;2.00;;;0.20;99.90;;;;;;5049483;28;20529;-80
2020/12/25 05:31:09;;;;;;;5.67;1.67;;;0.20;99.90;;;;;;5068929;28;20764;-80
2020/12/25 05:33:36;;;;;;;3.43;3.10;;;0.20;99.90;;;;;;5068930;28;20487;-80
2020/12/25 05:36:08;;;;;;;6.33;2.73;;;0.20;99.90;;;;;;5068960;28;20908;-80
2020/12/25 05:38:53;;;;;;;2.57;2.30;;;0.10;99.90;;;;;;5068751;28;20412;-80
2020/12/25 05:41:19;;;;;;;6.30;1.93;;;0.10;99.90;;;;;;5070601;28;20555;-80
2020/12/25 05:43:54;;;;;;;2.73;1.60;;;0.10;99.90;;;;;;5047914;28;20509;-80
2020/12/25 05:46:20;;;;;;;1.47;1.37;;;0.10;99.90;;;;;;5071241;28;20287;-80
2020/12/25 05:48:50;;;;;;;2.40;2.20;;;0.10;99.90;;;;;;5065661;28;21018;-80
2020/12/25 05:51:16;;;;;;;2.60;1.97;;;0.00;99.90;;;;;;5068060;28;20176;-80
2020/12/25 05:53:44;;;;;;;3.13;2.03;;;0.00;99.90;;;;;;5068604;28;20530;-80
2020/12/25 05:56:13;;;;;;;2.23;1.70;;;0.00;99.90;;;;;;5066841;28;20439;-80
2020/12/25 05:58:43;;;;;;;2.33;1.90;;;0.00;99.90;;;;;;5068264;28;20433;-81
2020/12/25 06:01:10;;;;;;;2.20;1.57;;;0.00;99.90;;;;;;5047747;28;20758;-80
2020/12/25 06:03:37;;;;;;;3.27;2.00;;;0.00;99.90;;;;;;5067476;28;20850;-80
2020/12/25 06:06:13;;;;;;;3.80;2.40;;;0.00;99.90;;;;;;5065537;28;20494;-81
2020/12/25 06:09:00;;;;;;;3.27;2.10;;;0.00;99.90;;;;;;5068005;28;20434;-81
2020/12/25 06:11:30;;;;;;;2.17;1.93;;;-0.10;99.90;;;;;;5068883;28;20466;-81
2020/12/25 06:13:57;;;;;;;1.93;1.73;;;-0.10;99.90;;;;;;5064504;28;20539;-81
2020/12/25 06:16:24;;;;;;;3.73;1.83;;;-0.10;99.90;;;;;;5050859;28;20451;-81
2020/12/25 06:19:10;;;;;;;3.53;1.83;;;-0.10;99.90;;;;;;5068169;28;20444;-81
2020/12/25 06:21:53;;;;;;;5.30;3.17;;;-0.10;99.90;;;;;;5068035;28;20475;-81
2020/12/25 06:24:19;;;;;;;2.40;1.67;;;-0.20;99.90;;;;;;5070341;28;20759;-81
2020/12/25 06:26:50;;;;;;;1.40;1.30;;;-0.20;99.90;;;;;;5070209;28;20554;-81
2020/12/25 06:29:16;;;;;;;2.40;2.20;;;-0.20;99.90;;;;;;5050475;28;20816;-81
2020/12/25 06:31:44;;;;;;;2.17;2.07;;;-0.20;99.90;;;;;;5067731;28;20498;-81
2020/12/25 06:34:11;;;;;;;3.43;2.23;;;-0.20;99.90;;;;;;5068532;28;20931;-81
2020/12/25 06:36:41;;;;;;;2.53;2.23;;;-0.30;99.90;;;;;;5069644;28;20483;-82
2020/12/25 06:39:13;;;;;;;5.37;2.27;;;-0.40;99.90;;;;;;5069257;28;20420;-82
2020/12/25 06:41:40;;;;;;;3.47;2.07;;;-0.40;99.90;;;;;;5070283;28;20441;-81
2020/12/25 06:44:09;;;;;;;5.10;2.03;;;-0.40;99.90;;;;;;5071108;28;20453;-81
2020/12/25 06:46:35;;;;;;;1.97;1.77;;;-0.40;99.90;;;;;;5073469;28;20824;-81
2020/12/25 06:49:09;;;;;;;2.67;2.47;;;-0.30;99.90;;;;;;5072115;28;20429;-81
2020/12/25 06:51:43;;;;;;;4.43;2.13;;;-0.30;99.90;;;;;;5071655;28;20439;-82
2020/12/25 06:54:22;;;;;;;3.00;2.17;;;-0.30;99.90;;;;;;5048136;28;20468;-82
2020/12/25 06:56:54;;;;;;;3.83;1.90;;;-0.30;99.90;;;;;;5055113;28;20447;-82
2020/12/25 06:59:22;;;;;;;1.83;1.73;;;-0.30;99.90;;;;;;5070397;28;20426;-82
2020/12/25 07:01:50;;;;;;;2.13;2.00;;;-0.30;99.90;;;;;;5056896;28;20510;-82
2020/12/25 07:04:26;;;;;;;2.90;2.00;;;-0.30;99.90;;;;;;5073288;28;20422;-82
2020/12/25 07:07:01;;;;;;;3.47;1.97;;;-0.30;99.90;;;;;;5068566;28;20435;-81
2020/12/25 07:09:43;;;;;;;2.27;2.03;;;-0.30;99.90;;;;;;5071595;28;20513;-81
2020/12/25 07:12:13;;;;;;;3.03;2.37;;;-0.30;99.90;;;;;;5074653;28;20810;-82
2020/12/25 07:14:39;;;;;;;4.97;2.50;;;-0.30;99.90;;;;;;5052945;28;20474;-82
2020/12/25 07:17:05;;;;;;;1.80;1.70;;;-0.40;99.90;;;;;;5071356;28;20448;-81
2020/12/25 07:19:33;;;;;;;2.30;2.10;;;-0.40;99.90;;;;;;5053302;28;20430;-82
2020/12/25 07:22:00;;;;;;;4.90;2.57;;;-0.40;99.90;;;;;;5071349;28;20280;-82
2020/12/25 07:24:26;;;;;;;6.80;2.40;;;-0.50;99.90;;;;;;5047792;28;21251;-82
2020/12/25 07:26:56;;;;;;;6.00;2.80;;;-0.60;99.90;;;;;;5070318;28;20433;-82
2020/12/25 07:29:23;;;;;;;2.00;1.90;;;-0.60;99.90;;;;;;5045218;28;20428;-82
2020/12/25 07:31:52;;;;;;;2.43;2.10;;;-0.60;99.90;;;;;;5067549;28;20798;-82
2020/12/25 07:34:22;;;;;;;3.13;2.87;;;-0.70;99.90;;;;;;5072072;28;20458;-82
2020/12/25 07:36:53;;;;;;;2.87;2.63;;;-0.70;99.90;;;;;;5051194;28;20736;-81
2020/12/25 07:39:20;;;;;;;2.90;1.60;;;-0.70;99.90;;;;;;5048269;28;20420;-81
2020/12/25 07:41:46;;;;;;;1.87;1.77;;;-0.70;99.90;;;;;;5049355;28;20434;-81
2020/12/25 07:44:11;;;;;;;4.10;2.47;;;-0.70;99.90;;;;;;5068512;28;20431;-81
2020/12/25 07:46:38;;;;;;;8.00;2.10;;;-0.80;99.90;;;;;;5066601;28;20923;-81
2020/12/25 07:49:05;;;;;;;3.00;2.37;;;-0.80;99.90;;;;;;5061859;28;20264;-81
2020/12/25 07:51:31;;;;;;;1.90;1.80;;;-0.80;99.90;;;;;;5067999;28;20521;-81
2020/12/25 07:53:59;;;;;;;5.30;2.33;;;-0.80;99.90;;;;;;5066466;28;20521;-82
2020/12/25 07:56:30;;;;;;;3.67;2.77;;;-0.80;99.90;;;;;;5069967;28;20426;-81
2020/12/25 07:58:57;;;;;;;4.30;2.30;;;-0.80;99.90;;;;;;5063793;28;21014;-81
2020/12/25 08:01:25;;;;;;;4.87;2.70;;;-0.80;99.90;;;;;;5067750;28;20885;-81
2020/12/25 08:03:52;;;;;;;6.43;2.13;;;-0.80;99.90;;;;;;5050582;28;20794;-81
2020/12/25 08:06:23;;;;;;;2.87;2.67;;;-0.80;99.90;;;;;;5054920;28;20435;-81
2020/12/25 08:08:52;;;;;;;5.53;2.30;;;-0.70;99.90;;;;;;5067985;28;20420;-81
2020/12/25 08:11:19;;;;;;;3.03;2.47;;;-0.60;99.90;;;;;;5072105;28;20598;-81
2020/12/25 08:13:48;;;;;;;3.63;2.63;;;-0.60;99.90;;;;;;5068366;28;20545;-81
2020/12/25 08:16:14;;;;;;;4.70;3.10;;;-0.60;99.90;;;;;;5069088;28;20508;-81
2020/12/25 08:18:40;;;;;;;2.40;2.20;;;-0.60;99.90;;;;;;5066371;28;20783;-81
2020/12/25 08:21:06;;;;;;;10.43;2.80;;;-0.60;99.90;;;;;;5051567;28;20419;-81
2020/12/25 08:23:35;;;;;;;2.77;2.60;;;-0.60;99.90;;;;;;5063787;28;20189;-81
2020/12/25 08:26:02;;;;;;;3.20;2.90;;;-0.50;99.90;;;;;;5052574;28;20267;-81
2020/12/25 08:28:31;;;;;;;2.43;2.27;;;-0.50;99.90;;;;;;5051249;28;20434;-81
2020/12/25 08:30:58;;;;;;;3.63;1.93;;;-0.40;99.90;;;;;;5056417;28;20434;-81
2020/12/25 08:33:26;;;;;;;2.40;2.30;;;-0.40;99.90;;;;;;5057444;28;20802;-81
2020/12/25 08:35:52;;;;;;;2.20;2.00;;;-0.40;99.90;;;;;;5065302;28;20460;-81
2020/12/25 08:38:18;;;;;;;4.40;2.53;;;-0.40;99.90;;;;;;5065416;28;20436;-81
2020/12/25 08:40:46;;;;;;;2.33;2.13;;;-0.30;99.90;;;;;;5045980;28;20434;-81
2020/12/25 08:43:14;;;;;;;1.70;1.60;;;-0.30;99.90;;;;;;5042853;28;20936;-81
2020/12/25 08:45:58;;;;;;;3.37;1.90;;;-0.20;99.90;;;;;;5061163;28;20532;-81
2020/12/25 08:48:24;;;;;;;4.03;2.03;;;-0.20;99.90;;;;;;5040043;28;20504;-81
2020/12/25 08:50:50;;;;;;;5.50;1.60;;;-0.20;99.90;;;;;;5048048;28;20427;-81
2020/12/25 08:53:18;;;;;;;1.90;1.80;;;-0.10;99.90;;;;;;5043822;28;20458;-81
2020/12/25 08:55:54;;;;;;;2.23;1.30;;;-0.10;99.90;;;;;;5059758;28;20451;-80
2020/12/25 08:58:22;;;;;;;4.90;1.90;;;-0.10;99.90;;;;;;5050044;28;20422;-80
2020/12/25 09:01:02;;;;;;;2.63;1.90;;;-0.10;99.90;;;;;;5069575;28;20431;-80
2020/12/25 09:03:41;;;;;;;4.07;1.73;;;0.00;99.90;;;;;;5044144;28;20485;-80
2020/12/25 09:06:08;;;;;;;3.93;1.50;;;0.00;99.90;;;;;;5062306;28;20434;-81
2020/12/25 09:08:34;;;;;;;8.13;2.60;;;0.10;99.90;;;;;;5044589;28;20431;-80
2020/12/25 09:11:00;;;;;;;3.60;1.80;;;0.10;99.90;;;;;;5059056;28;20491;-80
2020/12/25 09:13:26;;;;;;;2.50;2.33;;;0.10;99.90;;;;;;5064698;28;20930;-80
2020/12/25 09:15:52;;;;;;;1.70;1.60;;;0.20;99.90;;;;;;5067375;28;20601;-80
2020/12/25 09:18:18;;;;;;;1.50;1.40;;;0.20;99.90;;;;;;5061404;28;20524;-80
2020/12/25 09:20:43;;;;;;;1.43;1.33;;;0.20;99.90;;;;;;5048036;28;20523;-80
2020/12/25 09:23:09;;;;;;;2.73;1.30;;;0.30;99.90;;;;;;5043802;28;20194;-80
2020/12/25 09:25:35;;;;;;;1.17;1.17;;;0.30;99.90;;;;;;5062992;28;20542;-80
2020/12/25 09:28:01;;;;;;;2.57;1.57;;;0.40;99.90;;;;;;5059738;28;20448;-80
2020/12/25 09:30:27;;;;;;;5.00;1.80;;;0.40;99.90;;;;;;5063617;28;20180;-80
2020/12/25 09:32:52;;;;;;;1.53;1.43;;;0.50;99.90;;;;;;5059302;28;20187;-80
2020/12/25 09:35:18;;;;;;;4.70;1.77;;;0.50;99.90;;;;;;5064908;28;20280;-80
2020/12/25 09:37:44;;;;;;;2.13;1.37;;;0.50;99.90;;;;;;5061444;28;20185;-80
2020/12/25 09:40:09;;;;;;;2.47;1.67;;;0.60;99.90;;;;;;5057982;28;20190;-80
2020/12/25 09:42:35;;;;;;;1.40;1.30;;;0.60;99.90;;;;;;5062113;28;20187;-80
2020/12/25 09:45:01;;;;;;;1.70;1.60;;;0.70;99.90;;;;;;5058237;28;20266;-80
2020/12/25 09:47:26;;;;;;;1.67;1.53;;;0.80;99.90;;;;;;5043210;28;20198;-81
2020/12/25 09:49:52;;;;;;;1.77;1.67;;;0.90;99.90;;;;;;5062587;28;20189;-80
2020/12/25 09:52:18;;;;;;;1.00;1.00;;;0.90;99.90;;;;;;5057427;28;20249;-80
2020/12/25 09:54:44;;;;;;;3.20;1.33;;;0.90;99.90;;;;;;5062799;28;20211;-80
2020/12/25 09:57:09;;;;;;;2.10;1.80;;;1.00;99.90;;;;;;5063655;28;20181;-80
2020/12/25 09:59:35;;;;;;;2.20;1.43;;;1.00;99.90;;;;;;5064080;28;20194;-80
2020/12/25 10:02:01;;;;;;;8.77;2.47;;;1.10;99.90;;;;;;5049765;28;20267;-80
2020/12/25 10:04:27;;;;;;;1.80;1.67;;;1.20;99.90;;;;;;5063216;28;20183;-79
2020/12/25 10:06:56;;;;;;;2.43;1.70;;;1.30;99.90;;;;;;5060998;28;20637;-80
2020/12/25 10:09:22;;;;;;;1.30;1.20;;;1.30;99.90;;;;;;5064334;28;20219;-80
2020/12/25 10:11:48;;;;;;;5.13;1.40;;;1.40;99.90;;;;;;5064245;28;20469;-80
2020/12/25 10:14:14;;;;;;;1.30;1.20;;;1.40;99.90;;;;;;5068214;28;20473;-80
2020/12/25 10:16:40;;;;;;;1.40;1.30;;;1.40;99.90;;;;;;5054469;28;20793;-80
2020/12/25 10:19:05;;;;;;;1.73;1.63;;;1.40;99.90;;;;;;5066552;28;20183;-80
2020/12/25 10:21:31;;;;;;;3.30;1.97;;;1.50;99.90;;;;;;5073186;28;20526;-79
2020/12/25 10:23:57;;;;;;;4.63;1.37;;;1.50;99.90;;;;;;5067712;28;20188;-80
2020/12/25 10:26:23;;;;;;;4.67;1.37;;;1.60;99.90;;;;;;5054133;28;20661;-79
2020/12/25 10:28:48;;;;;;;1.60;1.50;;;1.70;99.90;;;;;;5065078;28;20215;-79
2020/12/25 10:31:14;;;;;;;3.80;1.30;;;1.80;99.90;;;;;;5064145;28;20271;-79
2020/12/25 10:33:40;;;;;;;2.27;1.47;;;1.80;99.90;;;;;;5064088;28;20984;-79
2020/12/25 10:36:06;;;;;;;5.07;1.33;;;1.90;99.90;;;;;;5065270;28;20184;-79
2020/12/25 10:38:32;;;;;;;1.50;1.40;;;1.90;99.90;;;;;;5049581;28;20179;-79
2020/12/25 10:40:58;;;;;;;1.40;1.30;;;2.00;99.90;;;;;;5066222;28;20637;-79
2020/12/25 10:43:24;;;;;;;0.97;0.97;;;2.10;99.90;;;;;;5067733;28;20422;-78
2020/12/25 10:45:49;;;;;;;1.70;1.10;;;2.20;99.90;;;;;;5047374;28;20440;-78
2020/12/25 10:48:15;;;;;;;1.00;1.00;;;2.20;99.90;;;;;;5052216;28;20221;-78
2020/12/25 10:50:41;;;;;;;3.63;1.90;;;2.30;99.90;;;;;;5063350;28;20313;-78
2020/12/25 10:53:06;;;;;;;1.33;1.27;;;2.30;99.90;;;;;;5067402;28;20214;-77
2020/12/25 10:55:32;;;;;;;1.57;1.33;;;2.40;99.90;;;;;;5066882;28;20179;-77
2020/12/25 10:57:58;;;;;;;2.60;1.37;;;2.50;99.90;;;;;;5071033;28;20176;-77
2020/12/25 11:00:24;;;;;;;2.80;1.23;;;2.60;99.90;;;;;;5046145;28;20493;-77
2020/12/25 11:02:49;;;;;;;3.57;1.03;;;2.60;99.90;;;;;;5043865;28;20317;-77
2020/12/25 11:05:16;;;;;;;2.77;1.30;;;2.70;99.90;;;;;;5068928;28;20188;-77
2020/12/25 11:07:43;;;;;;;5.70;1.60;;;2.70;99.90;;;;;;5071084;28;20186;-77
2020/12/25 11:10:08;;;;;;;2.50;1.60;;;2.70;99.90;;;;;;5042766;28;20434;-77
2020/12/25 11:12:34;;;;;;;2.73;1.30;;;2.80;99.90;;;;;;5045921;28;20437;-77
2020/12/25 11:15:00;;;;;;;3.27;1.40;;;2.90;99.90;;;;;;5066801;28;20583;-77
2020/12/25 11:17:26;;;;;;;3.00;1.70;;;3.00;99.90;;;;;;5059949;28;20194;-77
2020/12/25 11:19:55;;;;;;;1.37;1.27;;;3.00;99.90;;;;;;5064456;28;20172;-77
2020/12/25 11:22:22;;;;;;;1.30;1.20;;;3.10;99.90;;;;;;5062461;28;20238;-77
2020/12/25 11:24:48;;;;;;;3.00;1.40;;;3.20;99.90;;;;;;5048283;28;20427;-77
2020/12/25 11:27:14;;;;;;;2.20;1.40;;;3.30;99.90;;;;;;5069091;28;20457;-77
2020/12/25 11:29:40;;;;;;;1.93;1.83;;;3.40;99.90;;;;;;5065426;28;20529;-77
2020/12/25 11:32:05;;;;;;;1.87;1.03;;;3.40;99.90;;;;;;5066076;28;20207;-77
2020/12/25 11:34:31;;;;;;;1.30;1.20;;;3.50;99.90;;;;;;5062122;28;20212;-77
2020/12/25 11:36:57;;;;;;;1.53;1.20;;;3.50;99.90;;;;;;5066291;28;20506;-77
2020/12/25 11:39:23;;;;;;;2.10;1.30;;;3.60;99.90;;;;;;5060807;28;20179;-77
2020/12/25 11:41:48;;;;;;;2.50;1.37;;;3.60;99.90;;;;;;5041098;28;20328;-77
2020/12/25 11:44:14;;;;;;;3.03;1.33;;;3.60;99.90;;;;;;5061658;28;20233;-77
2020/12/25 11:46:40;;;;;;;1.03;1.03;;;3.70;99.90;;;;;;5063239;28;20545;-77
2020/12/25 11:49:07;;;;;;;1.47;1.37;;;3.70;99.90;;;;;;5063283;28;20433;-77
2020/12/25 11:51:34;;;;;;;5.80;1.57;;;3.70;99.90;;;;;;5062999;28;20191;-77
2020/12/25 11:54:00;;;;;;;1.30;1.20;;;3.70;99.90;;;;;;5065704;28;20586;-77
2020/12/25 11:56:30;;;;;;;1.30;1.20;;;3.60;99.90;;;;;;5066872;28;20511;-77
2020/12/25 11:59:01;;;;;;;1.70;1.27;;;3.60;99.90;;;;;;5066574;28;20412;-78
2020/12/25 12:01:28;;;;;;;2.30;1.50;;;3.60;99.90;;;;;;5069434;28;20757;-77
2020/12/25 12:03:54;;;;;;;4.33;1.37;;;3.50;99.90;;;;;;5068645;28;20435;-78
2020/12/25 12:06:24;;;;;;;1.57;1.10;;;3.50;99.90;;;;;;5050922;28;20446;-77
2020/12/25 12:08:51;;;;;;;1.13;1.13;;;3.50;99.90;;;;;;5062623;28;20462;-77
2020/12/25 12:11:17;;;;;;;1.50;1.40;;;3.40;99.90;;;;;;5044726;28;20559;-77
2020/12/25 12:13:43;;;;;;;2.60;1.17;;;3.50;99.90;;;;;;5065955;28;21067;-77
2020/12/25 12:16:17;;;;;;;2.63;1.37;;;3.40;99.90;;;;;;5068069;28;20186;-77
2020/12/25 12:18:43;;;;;;;1.20;1.10;;;3.50;99.90;;;;;;5048052;28;20930;-77
2020/12/25 12:21:09;;;;;;;1.07;1.00;;;3.50;99.90;;;;;;5060699;28;20856;-77
2020/12/25 12:23:36;;;;;;;4.27;1.23;;;3.60;99.90;;;;;;5041368;28;20427;-78
2020/12/25 12:26:02;;;;;;;2.73;1.50;;;3.70;99.90;;;;;;5062461;28;20801;-78
2020/12/25 12:28:28;;;;;;;2.10;1.10;;;3.60;99.90;;;;;;5044049;28;20507;-79
2020/12/25 12:30:54;;;;;;;2.70;1.23;;;3.70;99.90;;;;;;5040705;28;20524;-78
2020/12/25 12:33:19;;;;;;;3.83;1.20;;;3.80;99.90;;;;;;5060929;28;20203;-79
2020/12/25 12:35:45;;;;;;;3.90;0.80;;;3.90;99.90;;;;;;5061253;28;20459;-79
2020/12/25 12:38:11;;;;;;;2.90;1.33;;;4.00;99.90;;;;;;5063371;28;20249;-78
2020/12/25 12:40:37;;;;;;;1.20;1.20;;;4.10;99.90;;;;;;5068033;28;20621;-79
2020/12/25 12:43:03;;;;;;;2.20;1.30;;;4.10;99.90;;;;;;5065492;28;20186;-80
2020/12/25 12:45:28;;;;;;;1.37;1.27;;;4.10;99.90;;;;;;5064210;28;20181;-78
2020/12/25 12:47:54;;;;;;;1.43;0.80;;;4.20;99.90;;;;;;5067307;28;20429;-79
2020/12/25 12:50:20;;;;;;;2.10;1.20;;;4.20;99.90;;;;;;5063442;28;20260;-79
2020/12/25 12:52:46;;;;;;;2.10;1.20;;;4.20;99.90;;;;;;5047613;28;20183;-82
2020/12/25 12:55:11;;;;;;;4.67;1.40;;;4.20;99.90;;;;;;5043101;28;20740;-79